Time;durP1;ratioP1;P1;durP2;ratioP2;P2;SDS_P1;SDS_P2;PMS_P1;PMS_P2;Temp;Humidity;BMP_temperature;BMP_pressure;BME280_temperature;BME280_humidity;BME280_pressure;Samples;Min_cycle;Max_cycle;Signal;HPM_P1;HPM_P2
2021/11/30 00:00:08;;;;;;;17.90;6.20;;;4.30;94.70;;;;;;5030949;28;20786;-72
2021/11/30 00:02:35;;;;;;;13.40;5.30;;;4.30;94.70;;;;;;5029959;28;20449;-74
2021/11/30 00:05:01;;;;;;;15.30;6.57;;;4.30;94.60;;;;;;5030702;28;20864;-73
2021/11/30 00:07:27;;;;;;;13.30;5.87;;;4.30;94.40;;;;;;5029401;28;20417;-72
2021/11/30 00:12:23;;;;;;;9.93;5.53;;;4.20;94.20;;;;;;5030182;28;20433;-74
2021/11/30 00:14:52;;;;;;;16.93;6.53;;;4.20;94.20;;;;;;5030548;28;20413;-74
2021/11/30 00:17:19;;;;;;;10.20;6.10;;;4.30;94.30;;;;;;5031004;28;20421;-73
2021/11/30 00:19:46;;;;;;;12.70;5.50;;;4.30;94.00;;;;;;5029918;28;20417;-73
2021/11/30 00:22:15;;;;;;;10.00;6.40;;;4.30;93.80;;;;;;5012674;28;20463;-73
2021/11/30 00:24:41;;;;;;;10.50;5.30;;;4.30;93.70;;;;;;5030534;28;20405;-74
2021/11/30 00:27:07;;;;;;;10.10;5.20;;;4.30;93.60;;;;;;5029045;28;20507;-73
2021/11/30 00:29:34;;;;;;;9.83;5.10;;;4.30;93.50;;;;;;5029016;28;20504;-73
2021/11/30 00:32:00;;;;;;;16.40;5.60;;;4.40;93.20;;;;;;5029808;28;20496;-73
2021/11/30 00:34:26;;;;;;;10.90;5.07;;;4.40;93.10;;;;;;5030290;28;20432;-73
2021/11/30 00:36:52;;;;;;;9.73;4.60;;;4.40;92.90;;;;;;5030069;28;20405;-73
2021/11/30 00:39:18;;;;;;;14.53;7.27;;;4.40;92.70;;;;;;5028962;28;20175;-74
2021/11/30 00:41:48;;;;;;;7.57;5.57;;;4.40;92.20;;;;;;5029682;28;20425;-73
2021/11/30 00:44:16;;;;;;;12.20;5.87;;;4.40;92.20;;;;;;5030299;28;20492;-73
2021/11/30 00:46:43;;;;;;;8.63;5.20;;;4.40;92.10;;;;;;5028932;28;20417;-73
2021/11/30 00:49:09;;;;;;;14.17;5.90;;;4.30;91.60;;;;;;5030657;28;20521;-73
2021/11/30 00:51:38;;;;;;;8.67;5.93;;;4.30;91.70;;;;;;5029808;28;20440;-74
2021/11/30 00:54:07;;;;;;;12.50;5.87;;;4.30;91.80;;;;;;5028615;28;20413;-73
2021/11/30 00:56:37;;;;;;;12.07;6.93;;;4.30;91.50;;;;;;5030100;28;20417;-72
2021/11/30 00:59:03;;;;;;;18.20;6.93;;;4.40;91.70;;;;;;5030177;28;20436;-72
2021/11/30 01:01:31;;;;;;;10.97;6.53;;;4.40;91.80;;;;;;5028335;28;21131;-72
2021/11/30 01:03:58;;;;;;;9.10;6.27;;;4.40;91.50;;;;;;5033629;28;20251;-73
2021/11/30 01:06:24;;;;;;;14.53;7.83;;;4.40;91.20;;;;;;5034098;28;20715;-74
2021/11/30 01:08:49;;;;;;;18.03;7.27;;;4.40;91.10;;;;;;5032276;28;20486;-73
2021/11/30 01:11:15;;;;;;;10.60;5.93;;;4.40;91.30;;;;;;5033542;28;20488;-74
2021/11/30 01:13:41;;;;;;;13.27;5.90;;;4.40;91.00;;;;;;5033425;28;20162;-73
2021/11/30 01:16:07;;;;;;;11.83;6.53;;;4.40;90.60;;;;;;5033857;28;20217;-73
2021/11/30 01:18:33;;;;;;;22.43;6.33;;;4.30;90.70;;;;;;5033610;28;20178;-72
2021/11/30 01:20:59;;;;;;;12.57;6.67;;;4.40;90.80;;;;;;5033510;28;20516;-73
2021/11/30 01:23:30;;;;;;;8.97;5.13;;;4.40;90.30;;;;;;5033409;28;20547;-73
2021/11/30 01:25:57;;;;;;;13.13;6.30;;;4.30;90.20;;;;;;5033665;28;20420;-72
2021/11/30 01:28:23;;;;;;;11.07;5.63;;;4.30;89.80;;;;;;5031918;28;20456;-72
2021/11/30 01:30:49;;;;;;;11.70;5.10;;;4.40;90.00;;;;;;5033194;28;20416;-73
2021/11/30 01:33:43;;;;;;;13.47;6.57;;;4.40;89.30;;;;;;5016151;23;20494;-73
2021/11/30 01:36:11;;;;;;;7.57;4.73;;;4.30;88.00;;;;;;4994800;28;20395;-74
2021/11/30 01:38:45;;;;;;;10.60;5.10;;;4.30;88.50;;;;;;4994274;28;20492;-73
2021/11/30 01:41:45;;;;;;;11.37;5.70;;;4.30;88.70;;;;;;5008798;28;20410;-73
2021/11/30 01:44:51;;;;;;;8.50;5.33;;;4.30;88.30;;;;;;4994073;28;20508;-72
2021/11/30 01:50:03;;;;;;;7.53;4.60;;;4.30;87.50;;;;;;4993635;28;20489;-74
2021/11/30 01:52:30;;;;;;;11.37;5.37;;;4.30;87.30;;;;;;4993295;28;20431;-72
2021/11/30 01:54:56;;;;;;;9.03;4.10;;;4.30;86.90;;;;;;4993633;28;20411;-72
2021/11/30 01:57:25;;;;;;;9.50;4.77;;;4.30;86.60;;;;;;4993491;28;20430;-73
2021/11/30 01:59:53;;;;;;;12.70;5.03;;;4.30;86.70;;;;;;4993590;28;20266;-72
2021/11/30 02:02:19;;;;;;;10.57;5.70;;;4.30;85.80;;;;;;4975239;28;20454;-73
2021/11/30 02:04:45;;;;;;;8.17;3.70;;;4.30;85.40;;;;;;4993499;28;20777;-73
2021/11/30 02:07:11;;;;;;;7.43;3.87;;;4.30;85.60;;;;;;4993343;28;20404;-72
2021/11/30 02:09:38;;;;;;;8.23;4.10;;;4.30;85.80;;;;;;4991865;28;20419;-73
2021/11/30 02:12:06;;;;;;;5.30;3.50;;;4.30;86.10;;;;;;4992988;28;20419;-73
2021/11/30 02:14:33;;;;;;;5.33;3.73;;;4.30;86.20;;;;;;4991266;28;20414;-74
2021/11/30 02:17:00;;;;;;;7.40;4.27;;;4.30;85.90;;;;;;4992242;28;20510;-72
2021/11/30 02:19:27;;;;;;;6.40;3.93;;;4.40;86.00;;;;;;4992057;28;20434;-73
2021/11/30 02:21:53;;;;;;;14.17;4.40;;;4.30;86.00;;;;;;4992659;28;20447;-72
2021/11/30 02:24:18;;;;;;;8.73;5.13;;;4.30;85.80;;;;;;4992866;28;20952;-73
2021/11/30 02:26:44;;;;;;;7.73;4.50;;;4.30;85.90;;;;;;4993185;28;20349;-73
2021/11/30 02:29:11;;;;;;;6.63;4.10;;;4.30;86.00;;;;;;4994886;28;20267;-72
2021/11/30 02:31:45;;;;;;;7.70;3.60;;;4.40;86.30;;;;;;4992963;28;20191;-73
2021/11/30 02:34:13;;;;;;;8.57;4.37;;;4.40;86.20;;;;;;5008562;28;20485;-73
2021/11/30 02:39:15;;;;;;;7.43;4.00;;;4.40;86.50;;;;;;4993215;28;20445;-73
2021/11/30 02:41:41;;;;;;;5.67;3.27;;;4.40;86.90;;;;;;4992911;28;20446;-72
2021/11/30 02:44:09;;;;;;;7.00;3.30;;;4.40;87.30;;;;;;4992950;28;20451;-73
2021/11/30 02:46:39;;;;;;;7.90;3.60;;;4.40;87.70;;;;;;4993439;28;20507;-73
2021/11/30 02:49:11;;;;;;;4.80;3.00;;;4.40;87.70;;;;;;4993035;28;20406;-72
2021/11/30 02:51:41;;;;;;;7.80;3.93;;;4.40;88.40;;;;;;4991581;28;20418;-72
2021/11/30 02:54:09;;;;;;;5.30;3.20;;;4.40;89.00;;;;;;4992853;28;20407;-73
2021/11/30 02:56:40;;;;;;;5.67;3.50;;;4.40;89.50;;;;;;4992472;28;20419;-73
2021/11/30 02:59:06;;;;;;;5.93;3.10;;;4.40;90.00;;;;;;4992500;28;20436;-73
2021/11/30 03:01:33;;;;;;;11.93;3.20;;;4.40;90.30;;;;;;4992604;28;20929;-72
2021/11/30 03:03:58;;;;;;;6.90;3.20;;;4.40;90.40;;;;;;4992408;28;20196;-72
2021/11/30 03:06:24;;;;;;;5.43;2.90;;;4.40;90.70;;;;;;5007336;28;20426;-73
2021/11/30 03:08:50;;;;;;;5.13;2.67;;;4.40;91.20;;;;;;4991092;28;20425;-72
2021/11/30 03:11:16;;;;;;;3.90;2.53;;;4.40;91.60;;;;;;4992151;28;20164;-72
2021/11/30 03:13:41;;;;;;;4.40;2.43;;;4.30;91.90;;;;;;4991932;28;20191;-71
2021/11/30 03:16:07;;;;;;;3.10;2.40;;;4.30;92.40;;;;;;4992257;28;20168;-72
2021/11/30 03:18:36;;;;;;;5.30;2.93;;;4.20;92.90;;;;;;4992253;28;20688;-71
2021/11/30 03:21:04;;;;;;;5.97;3.23;;;4.20;93.00;;;;;;4992159;28;20704;-73
2021/11/30 03:23:30;;;;;;;7.10;3.63;;;4.20;93.50;;;;;;4991725;28;20458;-72
2021/11/30 03:25:55;;;;;;;4.83;3.27;;;4.20;93.80;;;;;;4989696;28;20757;-73
2021/11/30 03:28:21;;;;;;;5.23;2.60;;;4.20;94.20;;;;;;4992116;28;20288;-73
2021/11/30 03:31:04;;;;;;;5.27;2.20;;;4.10;94.40;;;;;;4991887;28;20198;-73
2021/11/30 03:36:15;;;;;;;9.30;3.23;;;4.00;95.00;;;;;;4990315;28;20423;-72
2021/11/30 03:38:40;;;;;;;6.40;2.90;;;4.00;94.90;;;;;;4991796;28;20407;-72
2021/11/30 03:41:07;;;;;;;6.70;2.70;;;4.00;95.20;;;;;;4989595;28;20900;-71
2021/11/30 03:43:33;;;;;;;6.67;2.97;;;4.00;95.40;;;;;;4991084;28;20196;-72
2021/11/30 03:45:59;;;;;;;7.53;2.90;;;4.00;95.90;;;;;;4990290;28;20415;-71
2021/11/30 03:48:25;;;;;;;8.53;2.73;;;3.90;96.20;;;;;;4991710;28;20495;-71
2021/11/30 03:50:51;;;;;;;9.37;3.33;;;3.90;96.40;;;;;;4991557;28;20170;-72
2021/11/30 03:53:16;;;;;;;5.93;3.77;;;3.90;96.60;;;;;;4990033;28;20672;-73
2021/11/30 03:55:42;;;;;;;7.03;3.50;;;3.80;96.70;;;;;;4991707;28;20585;-72
2021/11/30 03:58:08;;;;;;;4.10;3.00;;;3.90;97.10;;;;;;4991107;28;20191;-72
2021/11/30 04:00:34;;;;;;;6.33;3.10;;;3.90;97.10;;;;;;4990070;28;20546;-72
2021/11/30 04:03:00;;;;;;;4.80;2.80;;;3.80;97.40;;;;;;4990488;28;20253;-71
2021/11/30 04:05:25;;;;;;;6.90;2.33;;;3.90;97.60;;;;;;4991217;28;20769;-72
2021/11/30 04:07:51;;;;;;;3.50;2.17;;;3.90;97.60;;;;;;4991407;28;20573;-72
2021/11/30 04:10:17;;;;;;;8.87;2.80;;;3.90;97.90;;;;;;4991429;28;20307;-73
2021/11/30 04:12:42;;;;;;;6.60;3.00;;;3.90;98.10;;;;;;4991024;28;20191;-72
2021/11/30 04:15:08;;;;;;;5.10;2.90;;;3.90;98.20;;;;;;4991190;28;20203;-72
2021/11/30 04:17:34;;;;;;;4.67;2.27;;;3.90;98.50;;;;;;4991046;28;20192;-72
2021/11/30 04:20:00;;;;;;;3.80;2.10;;;3.90;98.60;;;;;;4991123;28;20618;-72
2021/11/30 04:22:25;;;;;;;3.30;1.80;;;3.90;98.70;;;;;;4990833;28;20785;-72
2021/11/30 04:24:52;;;;;;;5.33;2.00;;;3.90;98.80;;;;;;4991258;28;20168;-72
2021/11/30 04:27:17;;;;;;;3.30;1.90;;;4.00;98.90;;;;;;4991242;28;20629;-72
2021/11/30 04:29:45;;;;;;;4.03;2.00;;;4.00;99.10;;;;;;4990389;28;20485;-72
2021/11/30 04:32:11;;;;;;;3.10;1.80;;;4.00;99.10;;;;;;4991297;28;20490;-72
2021/11/30 04:34:37;;;;;;;4.77;2.10;;;4.00;99.20;;;;;;4994165;28;20407;-73
2021/11/30 04:37:03;;;;;;;5.73;2.50;;;4.00;99.30;;;;;;4992908;28;20172;-74
2021/11/30 04:39:29;;;;;;;9.33;2.17;;;4.10;99.40;;;;;;4997422;28;20271;-73
2021/11/30 04:41:54;;;;;;;4.23;1.40;;;4.10;99.60;;;;;;4994667;28;20538;-73
2021/11/30 04:44:23;;;;;;;9.27;2.20;;;4.10;99.70;;;;;;4994950;28;20160;-73
2021/11/30 04:49:26;;;;;;;4.33;1.60;;;4.20;99.90;;;;;;4994788;28;20746;-72
2021/11/30 04:51:52;;;;;;;2.70;1.43;;;4.20;99.90;;;;;;4994665;28;20335;-71
2021/11/30 04:54:18;;;;;;;2.90;1.80;;;4.20;99.90;;;;;;4994908;28;20501;-72
2021/11/30 04:56:44;;;;;;;2.43;1.80;;;4.20;99.90;;;;;;4993579;28;20254;-73
2021/11/30 04:59:09;;;;;;;4.70;1.97;;;4.20;99.90;;;;;;4994405;28;20164;-72
2021/11/30 05:01:35;;;;;;;3.00;1.70;;;4.20;99.90;;;;;;4994110;28;20549;-71
2021/11/30 05:04:01;;;;;;;5.43;1.97;;;4.20;99.90;;;;;;4993529;28;20206;-71
2021/11/30 05:06:27;;;;;;;2.90;1.40;;;4.20;99.90;;;;;;4994907;28;20170;-73
2021/11/30 05:08:53;;;;;;;2.93;1.73;;;4.30;99.90;;;;;;4995111;28;20630;-72
2021/11/30 05:11:19;;;;;;;2.80;1.90;;;4.30;99.90;;;;;;4993429;28;20443;-72
2021/11/30 05:13:45;;;;;;;4.00;2.60;;;4.30;99.90;;;;;;4994518;28;20837;-73
2021/11/30 05:16:10;;;;;;;3.00;2.20;;;4.30;99.90;;;;;;4993403;28;20168;-72
2021/11/30 05:18:36;;;;;;;3.40;1.50;;;4.30;99.90;;;;;;4994869;28;20511;-71
2021/11/30 05:21:02;;;;;;;3.13;1.90;;;4.40;99.90;;;;;;4994777;28;20537;-74
2021/11/30 05:23:29;;;;;;;5.20;2.67;;;4.40;99.90;;;;;;4994035;28;20192;-72
2021/11/30 05:26:05;;;;;;;2.77;2.10;;;4.40;99.90;;;;;;4994379;28;20426;-72
2021/11/30 05:28:37;;;;;;;3.70;2.00;;;4.40;99.90;;;;;;4994385;28;20905;-72
2021/11/30 05:31:04;;;;;;;3.77;2.60;;;4.40;99.90;;;;;;4994049;28;20406;-72
2021/11/30 05:33:31;;;;;;;2.80;2.00;;;4.40;99.90;;;;;;4993806;28;20438;-72
2021/11/30 05:35:58;;;;;;;3.80;2.63;;;4.50;99.90;;;;;;4992717;28;20522;-71
2021/11/30 05:38:24;;;;;;;3.77;2.10;;;4.50;99.90;;;;;;4994052;28;20411;-73
2021/11/30 05:40:51;;;;;;;2.60;1.93;;;4.50;99.90;;;;;;4995325;28;20465;-73
2021/11/30 05:43:16;;;;;;;2.70;1.87;;;4.50;99.90;;;;;;4993415;28;20549;-72
2021/11/30 05:45:43;;;;;;;2.60;2.10;;;4.60;99.90;;;;;;4993702;28;20833;-72
2021/11/30 05:48:10;;;;;;;3.00;2.47;;;4.60;99.90;;;;;;4993061;28;20210;-72
2021/11/30 05:50:36;;;;;;;4.57;2.77;;;4.60;99.90;;;;;;4993581;28;20564;-72
2021/11/30 05:53:03;;;;;;;2.60;2.30;;;4.60;99.90;;;;;;5001880;28;20801;-72
2021/11/30 05:55:29;;;;;;;3.27;2.23;;;4.60;99.90;;;;;;4995755;28;20785;-75
2021/11/30 05:57:55;;;;;;;4.60;2.30;;;4.60;99.90;;;;;;4976164;28;20423;-75
2021/11/30 06:00:21;;;;;;;3.80;2.40;;;4.70;99.90;;;;;;5008742;28;20561;-75
2021/11/30 06:05:25;;;;;;;13.13;2.80;;;4.70;99.90;;;;;;4993280;28;20407;-77
2021/11/30 06:07:51;;;;;;;4.40;2.73;;;4.70;99.90;;;;;;4993550;28;20492;-78
2021/11/30 06:10:17;;;;;;;3.93;2.70;;;4.70;99.90;;;;;;4993749;28;20402;-75
2021/11/30 06:12:42;;;;;;;4.57;3.07;;;4.80;99.90;;;;;;5005011;28;20454;-75
2021/11/30 06:15:09;;;;;;;4.83;2.87;;;4.80;99.90;;;;;;5009124;28;20434;-77
2021/11/30 06:17:35;;;;;;;6.50;3.00;;;4.80;99.90;;;;;;4993145;28;20211;-75
2021/11/30 06:20:00;;;;;;;6.60;3.80;;;4.90;99.90;;;;;;4993332;28;20513;-76
2021/11/30 06:22:26;;;;;;;4.60;3.00;;;4.90;99.90;;;;;;4999913;28;20191;-76
2021/11/30 06:24:52;;;;;;;4.90;3.40;;;4.90;99.90;;;;;;4996366;28;20790;-75
2021/11/30 06:27:17;;;;;;;4.43;3.07;;;5.00;99.90;;;;;;5010657;28;20575;-75
2021/11/30 06:29:43;;;;;;;5.23;3.77;;;5.00;99.90;;;;;;5007488;28;20211;-76
2021/11/30 06:32:10;;;;;;;5.40;3.00;;;5.00;99.90;;;;;;5002921;28;20680;-76
2021/11/30 06:34:37;;;;;;;8.47;3.20;;;5.10;99.90;;;;;;4993927;28;20279;-76
2021/11/30 06:37:07;;;;;;;15.83;4.63;;;5.10;99.90;;;;;;4992749;28;20777;-76
2021/11/30 06:39:34;;;;;;;4.27;3.17;;;5.20;99.90;;;;;;4994000;28;20421;-76
2021/11/30 06:42:00;;;;;;;7.23;3.87;;;5.20;99.90;;;;;;4993823;28;20971;-76
2021/11/30 06:44:26;;;;;;;7.03;4.97;;;5.20;99.90;;;;;;4996067;28;20446;-76
2021/11/30 06:46:51;;;;;;;5.83;4.47;;;5.30;99.90;;;;;;5012722;28;20449;-76
2021/11/30 06:49:17;;;;;;;8.00;4.97;;;5.30;99.90;;;;;;5010376;28;20642;-75
2021/11/30 06:51:43;;;;;;;6.60;4.60;;;5.30;99.90;;;;;;5009739;28;20538;-76
2021/11/30 06:54:09;;;;;;;6.70;4.17;;;5.40;99.90;;;;;;5003579;28;20640;-76
2021/11/30 06:56:35;;;;;;;5.37;4.10;;;5.40;99.90;;;;;;5013569;28;20414;-77
2021/11/30 06:59:01;;;;;;;6.70;4.10;;;5.40;99.90;;;;;;5017766;28;20418;-76
2021/11/30 07:01:28;;;;;;;7.50;4.70;;;5.50;99.90;;;;;;5011064;28;20183;-76
2021/11/30 07:03:54;;;;;;;7.70;5.40;;;5.50;99.90;;;;;;5000409;28;20371;-75
2021/11/30 07:06:35;;;;;;;6.33;4.30;;;5.60;99.90;;;;;;5022626;28;20455;-75
2021/11/30 07:14:12;;;;;;;5.63;3.90;;;5.70;99.90;;;;;;4993720;28;20494;-75
2021/11/30 07:16:37;;;;;;;4.87;3.80;;;5.70;99.90;;;;;;5009789;28;20426;-76
2021/11/30 07:19:04;;;;;;;8.23;4.60;;;5.70;99.90;;;;;;5009291;28;20172;-77
2021/11/30 07:21:30;;;;;;;10.10;4.23;;;5.80;99.90;;;;;;4993815;28;20172;-76
2021/11/30 07:23:56;;;;;;;5.37;3.87;;;5.80;99.90;;;;;;4995532;28;20454;-78
2021/11/30 07:26:23;;;;;;;6.37;3.77;;;5.80;99.90;;;;;;4993406;28;21021;-76
2021/11/30 07:28:50;;;;;;;5.13;3.70;;;5.80;99.90;;;;;;5007692;28;20175;-76
2021/11/30 07:31:16;;;;;;;5.87;3.67;;;5.90;99.90;;;;;;4992876;28;20407;-76
2021/11/30 07:33:47;;;;;;;4.47;3.90;;;5.90;99.90;;;;;;4997990;28;20451;-76
2021/11/30 07:36:18;;;;;;;3.80;3.20;;;5.90;99.90;;;;;;4996383;28;20513;-76
2021/11/30 07:38:47;;;;;;;5.23;3.30;;;5.90;99.90;;;;;;4992369;28;20813;-75
2021/11/30 07:41:15;;;;;;;6.17;4.10;;;6.00;99.90;;;;;;4993229;28;20410;-77
2021/11/30 07:43:40;;;;;;;7.40;3.93;;;5.90;99.90;;;;;;5012252;28;20465;-77
2021/11/30 07:46:07;;;;;;;8.77;4.50;;;6.00;99.90;;;;;;5012180;28;20610;-76
2021/11/30 07:48:33;;;;;;;6.37;3.60;;;6.00;99.90;;;;;;5023462;28;20175;-76
2021/11/30 07:51:00;;;;;;;5.97;3.83;;;6.00;99.90;;;;;;5010024;28;20805;-76
2021/11/30 07:53:26;;;;;;;8.37;4.80;;;6.00;99.90;;;;;;5008573;28;20545;-76
2021/11/30 07:55:53;;;;;;;5.37;3.87;;;6.00;99.90;;;;;;5005645;28;20538;-77
2021/11/30 07:58:20;;;;;;;5.00;3.97;;;6.10;99.90;;;;;;4999459;28;20584;-76
2021/11/30 08:00:47;;;;;;;8.03;4.53;;;6.10;99.90;;;;;;5000442;28;20434;-76
2021/11/30 08:03:13;;;;;;;4.07;3.27;;;6.10;99.90;;;;;;5008021;28;20462;-76
2021/11/30 08:05:39;;;;;;;5.73;4.27;;;6.10;99.90;;;;;;5003555;28;20450;-76
2021/11/30 08:08:05;;;;;;;5.03;4.43;;;6.20;99.90;;;;;;5006782;28;20198;-75
2021/11/30 08:10:30;;;;;;;8.30;4.30;;;6.20;99.90;;;;;;5003786;28;20679;-76
2021/11/30 08:12:56;;;;;;;6.67;4.43;;;6.20;99.90;;;;;;5003519;28;20454;-77
2021/11/30 08:15:23;;;;;;;8.40;4.03;;;6.20;99.90;;;;;;5006587;28;20175;-76
2021/11/30 08:17:49;;;;;;;7.20;4.10;;;6.30;99.90;;;;;;5010071;28;20437;-75
2021/11/30 08:20:15;;;;;;;4.87;3.63;;;6.30;99.90;;;;;;5004903;28;20452;-76
2021/11/30 08:22:41;;;;;;;7.70;4.47;;;6.30;99.90;;;;;;4995820;28;20215;-76
2021/11/30 08:25:09;;;;;;;5.60;3.10;;;6.30;99.90;;;;;;5009554;28;20171;-76
2021/11/30 08:27:35;;;;;;;4.50;3.40;;;6.30;99.90;;;;;;5001254;28;20483;-76
2021/11/30 08:30:01;;;;;;;10.23;4.07;;;6.30;99.90;;;;;;5005092;28;20522;-77
2021/11/30 08:32:28;;;;;;;10.50;4.20;;;6.40;99.90;;;;;;5010694;28;20529;-75
2021/11/30 08:34:55;;;;;;;8.23;4.50;;;6.40;99.90;;;;;;5008261;28;20175;-76
2021/11/30 08:37:22;;;;;;;5.93;4.07;;;6.40;99.90;;;;;;4993267;28;21050;-76
2021/11/30 08:39:49;;;;;;;4.93;3.43;;;6.40;99.90;;;;;;5010283;28;20524;-76
2021/11/30 08:42:17;;;;;;;6.03;4.10;;;6.50;99.90;;;;;;4999354;28;20434;-76
2021/11/30 08:44:43;;;;;;;4.70;4.20;;;6.50;99.90;;;;;;4999731;28;20426;-76
2021/11/30 08:47:11;;;;;;;7.17;4.43;;;6.50;99.90;;;;;;5011180;28;20749;-76
2021/11/30 08:49:38;;;;;;;6.27;3.40;;;6.50;99.90;;;;;;5011723;28;20410;-76
2021/11/30 08:52:06;;;;;;;5.60;3.50;;;6.60;99.90;;;;;;5003607;28;20443;-76
2021/11/30 08:54:33;;;;;;;4.50;3.50;;;6.60;99.90;;;;;;4996630;28;20990;-76
2021/11/30 08:57:00;;;;;;;7.67;4.40;;;6.60;99.90;;;;;;5003748;28;20427;-76
2021/11/30 08:59:26;;;;;;;5.97;3.93;;;6.70;99.90;;;;;;5010460;28;20863;-77
2021/11/30 09:01:52;;;;;;;5.30;3.80;;;6.70;99.90;;;;;;4991997;28;20457;-77
2021/11/30 09:04:18;;;;;;;6.00;3.63;;;6.70;99.90;;;;;;4999215;28;20457;-77
2021/11/30 09:06:44;;;;;;;4.07;3.43;;;6.70;99.90;;;;;;5001660;28;20776;-77
2021/11/30 09:09:10;;;;;;;4.30;3.13;;;6.70;99.90;;;;;;4996673;28;20167;-77
2021/11/30 09:11:38;;;;;;;8.97;4.63;;;6.80;99.90;;;;;;5002457;28;20222;-77
2021/11/30 09:14:05;;;;;;;6.47;4.73;;;6.80;99.90;;;;;;4994938;28;20429;-77
2021/11/30 09:16:31;;;;;;;6.43;4.40;;;6.80;99.90;;;;;;5008822;28;20453;-77
2021/11/30 09:18:57;;;;;;;5.70;3.90;;;6.90;99.90;;;;;;5011747;28;20410;-76
2021/11/30 09:21:24;;;;;;;6.03;3.70;;;6.90;99.90;;;;;;5011031;28;20422;-78
2021/11/30 09:23:50;;;;;;;9.27;4.90;;;6.90;99.90;;;;;;5004327;28;20824;-76
2021/11/30 09:26:16;;;;;;;6.70;4.17;;;6.90;99.90;;;;;;5010795;28;20429;-76
2021/11/30 09:28:43;;;;;;;7.30;3.90;;;6.90;99.90;;;;;;5009443;28;20414;-76
2021/11/30 09:31:09;;;;;;;8.40;4.10;;;6.90;99.90;;;;;;5010509;28;21001;-78
2021/11/30 09:33:38;;;;;;;4.90;4.30;;;6.90;99.90;;;;;;5014333;28;20453;-77
2021/11/30 09:36:04;;;;;;;9.83;4.73;;;6.90;99.90;;;;;;4993848;28;20414;-75
2021/11/30 09:38:30;;;;;;;6.10;4.80;;;6.90;99.90;;;;;;5015431;28;20416;-76
2021/11/30 09:40:58;;;;;;;4.87;4.33;;;7.00;99.90;;;;;;5008800;28;20489;-75
2021/11/30 09:43:25;;;;;;;5.23;3.60;;;7.00;99.90;;;;;;5013894;28;20715;-77
2021/11/30 09:45:56;;;;;;;5.10;4.20;;;7.00;99.90;;;;;;5014093;28;20975;-76
2021/11/30 09:48:22;;;;;;;6.33;4.40;;;7.00;99.90;;;;;;4996485;28;20618;-76
2021/11/30 09:50:48;;;;;;;5.37;3.40;;;7.10;99.90;;;;;;5030659;28;20406;-77
2021/11/30 09:53:15;;;;;;;6.43;3.40;;;7.10;99.90;;;;;;5010980;28;20450;-77
2021/11/30 09:55:42;;;;;;;6.53;4.10;;;7.10;99.90;;;;;;5010044;28;20419;-76
2021/11/30 09:58:08;;;;;;;8.57;3.53;;;7.20;99.90;;;;;;4999116;28;20800;-76
2021/11/30 10:00:35;;;;;;;4.73;3.93;;;7.20;99.90;;;;;;5000267;28;20426;-76
2021/11/30 10:03:02;;;;;;;4.20;3.13;;;7.20;99.90;;;;;;4999546;28;20538;-76
2021/11/30 10:05:29;;;;;;;5.17;3.00;;;7.30;99.90;;;;;;5014395;28;20414;-76
2021/11/30 10:07:56;;;;;;;3.80;3.40;;;7.30;99.90;;;;;;5005397;28;20405;-77
2021/11/30 10:10:30;;;;;;;7.80;4.37;;;7.30;99.90;;;;;;5004863;28;20792;-76
2021/11/30 10:13:04;;;;;;;3.53;2.90;;;7.30;99.90;;;;;;5012581;28;20521;-76
2021/11/30 10:15:45;;;;;;;5.30;3.37;;;7.40;99.90;;;;;;5007577;28;20430;-76
2021/11/30 10:18:23;;;;;;;3.80;3.40;;;7.40;99.90;;;;;;4998711;28;20430;-76
2021/11/30 10:20:54;;;;;;;4.10;3.37;;;7.40;99.90;;;;;;5001104;28;20465;-76
2021/11/30 10:23:23;;;;;;;3.43;2.90;;;7.40;99.90;;;;;;5008719;28;20520;-76
2021/11/30 10:25:49;;;;;;;3.93;2.73;;;7.50;99.90;;;;;;4994083;28;20554;-76
2021/11/30 10:28:23;;;;;;;8.47;3.43;;;7.50;99.90;;;;;;5004864;28;20418;-76
2021/11/30 10:30:51;;;;;;;4.33;3.50;;;7.50;99.90;;;;;;5010669;28;20450;-76
2021/11/30 10:33:25;;;;;;;7.30;4.67;;;7.60;99.90;;;;;;5008620;28;20544;-76
2021/11/30 10:35:54;;;;;;;5.23;3.83;;;7.60;99.90;;;;;;5010409;28;20504;-77
2021/11/30 10:38:22;;;;;;;3.63;3.27;;;7.60;99.90;;;;;;4998949;28;20434;-77
2021/11/30 10:40:48;;;;;;;4.30;3.20;;;7.60;99.90;;;;;;5001400;28;20486;-78
2021/11/30 10:43:17;;;;;;;4.70;3.73;;;7.60;99.90;;;;;;4998674;28;20469;-76
2021/11/30 10:45:48;;;;;;;3.37;2.67;;;7.70;99.90;;;;;;4994036;28;20907;-76
2021/11/30 10:48:24;;;;;;;3.73;3.33;;;7.70;99.90;;;;;;4993259;28;20955;-75
2021/11/30 10:50:52;;;;;;;7.03;3.60;;;7.70;99.90;;;;;;4995660;28;20415;-76
2021/11/30 10:53:18;;;;;;;3.67;3.10;;;7.80;99.90;;;;;;5008983;28;20452;-75
2021/11/30 10:55:46;;;;;;;3.83;2.60;;;7.80;99.90;;;;;;5011437;28;20846;-76
2021/11/30 10:58:12;;;;;;;3.73;3.00;;;7.80;99.90;;;;;;4995593;28;20175;-76
2021/11/30 11:00:38;;;;;;;3.83;2.90;;;7.80;99.90;;;;;;5011700;28;20457;-76
2021/11/30 11:05:40;;;;;;;6.80;3.17;;;7.80;99.90;;;;;;5006913;28;20183;-76
2021/11/30 11:08:10;;;;;;;8.73;4.40;;;7.80;99.90;;;;;;5012832;28;20444;-76
2021/11/30 11:10:38;;;;;;;4.10;3.13;;;7.80;99.90;;;;;;5012220;28;20418;-76
2021/11/30 11:13:16;;;;;;;4.30;2.93;;;7.80;99.90;;;;;;5012395;28;20426;-76
2021/11/30 11:15:43;;;;;;;8.00;5.53;;;7.80;99.90;;;;;;5006228;28;20939;-76
2021/11/30 11:18:30;;;;;;;4.30;2.73;;;7.80;99.90;;;;;;5005374;28;20430;-75
2021/11/30 11:21:19;;;;;;;3.90;3.03;;;7.80;99.90;;;;;;4992160;28;20423;-76
2021/11/30 11:24:04;;;;;;;5.70;2.60;;;7.80;99.90;;;;;;4992073;28;20462;-75
2021/11/30 11:26:38;;;;;;;5.73;2.90;;;7.90;99.90;;;;;;5011083;28;20418;-76
2021/11/30 11:29:10;;;;;;;5.43;2.70;;;7.90;99.90;;;;;;4998007;28;20828;-76
2021/11/30 11:31:39;;;;;;;2.87;2.17;;;7.90;99.90;;;;;;5025322;28;20426;-75
2021/11/30 11:34:07;;;;;;;3.97;2.77;;;7.90;99.90;;;;;;4996939;28;20430;-76
2021/11/30 11:36:33;;;;;;;3.37;2.40;;;7.90;99.90;;;;;;4992590;28;20429;-76
2021/11/30 11:39:01;;;;;;;3.97;2.70;;;7.90;99.90;;;;;;5023699;28;20419;-76
2021/11/30 11:41:28;;;;;;;4.73;2.83;;;7.90;99.90;;;;;;4997295;28;20413;-75
2021/11/30 11:43:55;;;;;;;7.00;3.20;;;7.90;99.90;;;;;;4985029;28;20470;-76
2021/11/30 11:46:21;;;;;;;6.43;2.90;;;7.90;99.90;;;;;;5000319;28;20425;-78
2021/11/30 11:48:55;;;;;;;3.83;2.40;;;8.00;99.90;;;;;;5011444;28;20422;-76
2021/11/30 11:51:21;;;;;;;5.70;3.50;;;8.00;99.90;;;;;;5011085;28;20467;-77
2021/11/30 11:53:56;;;;;;;11.40;6.73;;;8.00;99.90;;;;;;5010902;28;20417;-76
2021/11/30 11:56:24;;;;;;;5.77;3.27;;;8.00;99.90;;;;;;5009825;28;20206;-76
2021/11/30 11:59:08;;;;;;;17.83;8.03;;;8.00;99.90;;;;;;5010333;28;20454;-76
2021/11/30 12:01:35;;;;;;;15.93;8.00;;;8.00;99.90;;;;;;5010705;28;20914;-77
2021/11/30 12:04:09;;;;;;;7.90;4.37;;;8.00;99.90;;;;;;5009468;28;20453;-77
2021/11/30 12:06:49;;;;;;;4.13;3.03;;;8.00;99.90;;;;;;5010807;28;20398;-76
2021/11/30 12:09:20;;;;;;;6.87;2.90;;;8.00;99.90;;;;;;4997547;28;20513;-77
2021/11/30 12:11:56;;;;;;;9.73;5.07;;;8.10;99.90;;;;;;5022413;28;20641;-78
2021/11/30 12:14:35;;;;;;;4.90;3.30;;;8.10;99.90;;;;;;5021808;28;20427;-76
2021/11/30 12:17:21;;;;;;;2.37;1.80;;;8.10;99.90;;;;;;5009698;28;20508;-75
2021/11/30 12:20:11;;;;;;;3.40;2.50;;;8.20;99.90;;;;;;4998455;28;20449;-75
2021/11/30 12:22:59;;;;;;;5.07;2.57;;;8.20;99.90;;;;;;4991257;28;20454;-76
2021/11/30 12:25:46;;;;;;;5.57;2.80;;;8.30;99.90;;;;;;4996979;28;20746;-76
2021/11/30 12:28:40;;;;;;;2.30;2.03;;;8.30;99.90;;;;;;4997836;28;20422;-75
2021/11/30 12:31:25;;;;;;;2.90;1.83;;;8.30;99.90;;;;;;4999654;28;20518;-75
2021/11/30 12:33:51;;;;;;;3.27;2.10;;;8.30;99.90;;;;;;4991285;28;20469;-75
2021/11/30 12:36:29;;;;;;;1.87;1.60;;;8.30;99.90;;;;;;4991319;28;20499;-76
2021/11/30 12:38:58;;;;;;;2.13;1.87;;;8.30;99.90;;;;;;4997467;28;20640;-75
2021/11/30 12:41:46;;;;;;;14.67;2.03;;;8.30;99.90;;;;;;5000563;28;20827;-74
2021/11/30 12:44:14;;;;;;;3.10;2.10;;;8.40;99.90;;;;;;4999431;28;20462;-75
2021/11/30 12:46:43;;;;;;;2.50;1.73;;;8.30;99.90;;;;;;4997944;28;20422;-76
2021/11/30 12:49:24;;;;;;;4.43;1.77;;;8.30;99.90;;;;;;4991806;28;20466;-76
2021/11/30 12:52:21;;;;;;;5.57;2.30;;;8.30;99.90;;;;;;4992842;28;20523;-76
2021/11/30 12:55:17;;;;;;;5.73;2.03;;;8.40;99.90;;;;;;4990322;28;20406;-75
2021/11/30 12:57:44;;;;;;;2.23;1.97;;;8.30;99.90;;;;;;4994873;28;20829;-76
2021/11/30 13:00:28;;;;;;;6.43;4.80;;;8.40;99.90;;;;;;5004387;28;20445;-76
2021/11/30 13:03:14;;;;;;;2.50;2.17;;;8.40;99.90;;;;;;5013692;28;20986;-75
2021/11/30 13:05:53;;;;;;;3.53;2.20;;;8.40;99.90;;;;;;5002677;28;20419;-76
2021/11/30 13:08:18;;;;;;;6.13;2.53;;;8.40;99.90;;;;;;4997538;28;20458;-76
2021/11/30 13:10:50;;;;;;;8.80;2.73;;;8.50;99.90;;;;;;5010137;28;20673;-75
2021/11/30 13:13:21;;;;;;;5.03;2.70;;;8.40;99.90;;;;;;5012031;28;20260;-75
2021/11/30 13:15:56;;;;;;;2.60;2.03;;;8.40;99.90;;;;;;5007470;28;20465;-77
2021/11/30 13:18:26;;;;;;;3.50;2.13;;;8.40;99.90;;;;;;5009620;28;20425;-76
2021/11/30 13:20:52;;;;;;;6.90;4.20;;;8.40;99.90;;;;;;5013087;28;20520;-76
2021/11/30 13:23:19;;;;;;;4.83;3.27;;;8.50;99.90;;;;;;5007770;28;20466;-76
2021/11/30 13:25:45;;;;;;;7.30;2.67;;;8.40;99.90;;;;;;5010761;28;20422;-77